Time;durP1;ratioP1;P1;durP2;ratioP2;P2;SDS_P1;SDS_P2;PMS_P1;PMS_P2;Temp;Humidity;BMP_temperature;BMP_pressure;BME280_temperature;BME280_humidity;BME280_pressure;Samples;Min_cycle;Max_cycle;Signal;HPM_P1;HPM_P2
2023/12/04 00:00:35;;;;;;;39.10;23.63;;;-0.20;76.00;;;;;;5054571;28;20506;-65
2023/12/04 00:03:01;;;;;;;34.53;22.73;;;-0.20;75.60;;;;;;5054228;28;20379;-65
2023/12/04 00:05:27;;;;;;;47.58;29.77;;;-0.20;75.40;;;;;;5054313;28;20469;-64
2023/12/04 00:07:52;;;;;;;36.60;22.42;;;-0.30;75.40;;;;;;5054169;28;20025;-63
2023/12/04 00:10:18;;;;;;;40.10;24.20;;;-0.30;75.50;;;;;;5053981;28;20052;-60
2023/12/04 00:12:44;;;;;;;50.55;29.55;;;-0.30;75.70;;;;;;5054166;28;20115;-63
2023/12/04 00:15:10;;;;;;;42.15;24.45;;;-0.40;75.10;;;;;;5054130;28;20021;-65
2023/12/04 00:17:39;;;;;;;47.28;27.63;;;-0.40;76.00;;;;;;5053893;28;20433;-64
2023/12/04 00:20:06;;;;;;;40.58;25.80;;;-0.50;76.40;;;;;;5052801;28;20129;-64
2023/12/04 00:22:32;;;;;;;41.95;25.15;;;-0.50;77.50;;;;;;5053955;28;20025;-65
2023/12/04 00:24:58;;;;;;;41.22;25.23;;;-0.50;76.40;;;;;;5054097;28;20027;-63
2023/12/04 00:27:26;;;;;;;38.55;23.10;;;-0.60;77.00;;;;;;5054003;28;20099;-66
2023/12/04 00:29:52;;;;;;;36.05;22.00;;;-0.60;76.90;;;;;;5053611;28;20029;-65
2023/12/04 00:32:18;;;;;;;40.55;22.48;;;-0.60;77.90;;;;;;5053061;28;20025;-63
2023/12/04 00:34:44;;;;;;;31.08;18.90;;;-0.70;77.90;;;;;;5053807;28;20032;-64
2023/12/04 00:37:10;;;;;;;28.50;17.58;;;-0.70;78.40;;;;;;5053707;28;20017;-66
2023/12/04 00:39:35;;;;;;;28.00;17.73;;;-0.70;78.10;;;;;;5053761;28;20025;-62
2023/12/04 00:42:01;;;;;;;28.52;16.75;;;-0.70;77.80;;;;;;5053736;28;20025;-62
2023/12/04 00:44:27;;;;;;;25.30;16.83;;;-0.70;78.80;;;;;;5053624;28;20017;-63
2023/12/04 00:46:52;;;;;;;38.40;21.90;;;-0.70;78.00;;;;;;5053338;28;20024;-64
2023/12/04 00:49:18;;;;;;;29.15;17.70;;;-0.70;77.50;;;;;;5053637;28;20044;-66
2023/12/04 00:51:44;;;;;;;27.65;16.77;;;-0.80;78.40;;;;;;5053447;28;20033;-60
2023/12/04 00:54:11;;;;;;;40.20;23.63;;;-0.80;78.50;;;;;;5053351;28;20374;-64
2023/12/04 00:56:40;;;;;;;25.20;15.95;;;-0.80;77.90;;;;;;5053372;28;20021;-65
2023/12/04 00:59:07;;;;;;;25.75;15.20;;;-0.80;78.20;;;;;;5053377;28;20086;-67
2023/12/04 01:01:35;;;;;;;22.30;14.38;;;-0.80;78.40;;;;;;5053032;28;20275;-62
2023/12/04 01:04:00;;;;;;;24.77;16.02;;;-0.80;79.00;;;;;;5053279;28;20424;-65
2023/12/04 01:06:26;;;;;;;24.27;15.13;;;-0.80;77.80;;;;;;5053324;28;20017;-65
2023/12/04 01:08:53;;;;;;;26.05;17.00;;;-0.80;78.00;;;;;;5053134;28;20390;-65
2023/12/04 01:11:19;;;;;;;28.73;16.23;;;-0.90;78.40;;;;;;5052918;28;20085;-65
2023/12/04 01:13:45;;;;;;;30.90;19.00;;;-0.80;78.10;;;;;;5053343;28;20052;-64
2023/12/04 01:16:11;;;;;;;23.50;14.20;;;-0.90;77.70;;;;;;5053167;28;20018;-66
2023/12/04 01:18:36;;;;;;;22.38;13.95;;;-0.90;78.10;;;;;;5053104;28;20017;-67
2023/12/04 01:21:02;;;;;;;22.48;14.15;;;-0.90;77.80;;;;;;5053070;28;20502;-64
2023/12/04 01:23:28;;;;;;;24.13;15.07;;;-0.90;77.80;;;;;;5052982;28;20017;-67
2023/12/04 01:25:54;;;;;;;23.90;13.85;;;-0.90;78.00;;;;;;5053309;28;20029;-64
2023/12/04 01:28:19;;;;;;;19.60;12.75;;;-0.90;78.30;;;;;;5052892;28;20025;-62
2023/12/04 01:30:45;;;;;;;18.58;12.32;;;-0.80;78.10;;;;;;5052941;28;20475;-67
2023/12/04 01:33:11;;;;;;;19.15;12.52;;;-0.80;77.70;;;;;;5052944;28;20057;-64
2023/12/04 01:35:36;;;;;;;20.42;11.98;;;-0.80;78.40;;;;;;5052971;28;20425;-68
2023/12/04 01:38:02;;;;;;;15.90;10.82;;;-0.90;78.60;;;;;;5052955;28;20013;-61
2023/12/04 01:40:28;;;;;;;21.52;13.10;;;-0.90;78.10;;;;;;5052813;28;20490;-65
2023/12/04 01:42:53;;;;;;;14.65;10.52;;;-0.90;77.60;;;;;;5052807;28;20111;-63
2023/12/04 01:45:19;;;;;;;14.25;9.77;;;-0.90;78.00;;;;;;5056643;28;20021;-63
2023/12/04 01:47:46;;;;;;;24.70;16.63;;;-0.90;78.90;;;;;;5056878;28;20096;-67
2023/12/04 01:50:14;;;;;;;24.40;15.65;;;-1.00;79.40;;;;;;5056826;28;20048;-60
2023/12/04 01:52:40;;;;;;;20.05;12.88;;;-1.20;80.00;;;;;;5056837;28;20360;-65
2023/12/04 01:55:07;;;;;;;20.83;12.02;;;-1.30;80.90;;;;;;5056658;28;20020;-68
2023/12/04 01:57:34;;;;;;;16.73;10.70;;;-1.20;81.40;;;;;;5056533;28;20106;-63
2023/12/04 01:59:59;;;;;;;18.55;11.75;;;-1.10;80.90;;;;;;5056745;28;20105;-63
2023/12/04 02:02:26;;;;;;;19.45;10.63;;;-1.10;79.90;;;;;;5056569;28;20057;-64
2023/12/04 02:04:55;;;;;;;17.02;11.02;;;-1.10;79.90;;;;;;5056687;28;20490;-62
2023/12/04 02:07:21;;;;;;;15.20;9.75;;;-1.00;79.40;;;;;;5056680;28;20017;-65
2023/12/04 02:09:47;;;;;;;15.20;10.43;;;-1.10;78.60;;;;;;5056236;28;20049;-63
2023/12/04 02:12:12;;;;;;;17.02;11.13;;;-1.10;79.50;;;;;;5056374;28;20043;-65
2023/12/04 02:14:38;;;;;;;17.10;10.82;;;-1.00;79.00;;;;;;5056492;28;20518;-65
2023/12/04 02:17:06;;;;;;;17.15;11.70;;;-1.10;78.90;;;;;;5056352;28;20391;-64
2023/12/04 02:19:32;;;;;;;24.48;13.75;;;-1.00;77.90;;;;;;5056383;28;20016;-63
2023/12/04 02:21:58;;;;;;;23.65;13.98;;;-1.10;77.60;;;;;;5056312;28;20379;-64
2023/12/04 02:24:24;;;;;;;28.42;17.98;;;-1.00;77.20;;;;;;5056265;28;20055;-63
2023/12/04 02:26:57;;;;;;;30.40;19.75;;;-1.10;77.90;;;;;;5055989;28;20021;-62
2023/12/04 02:29:31;;;;;;;23.48;15.60;;;-1.10;77.90;;;;;;5056317;28;20025;-63
2023/12/04 02:32:00;;;;;;;21.60;13.18;;;-1.20;78.50;;;;;;5055987;28;20487;-63
2023/12/04 02:34:28;;;;;;;21.98;13.50;;;-1.30;78.10;;;;;;5056110;28;20075;-63
2023/12/04 02:36:55;;;;;;;23.27;13.98;;;-1.30;78.40;;;;;;5056107;28;20475;-61
2023/12/04 02:39:21;;;;;;;19.88;13.15;;;-1.30;78.60;;;;;;5055885;28;20032;-60
2023/12/04 02:41:48;;;;;;;19.33;11.63;;;-1.30;78.20;;;;;;5055774;28;20075;-64
2023/12/04 02:44:14;;;;;;;27.35;16.33;;;-1.30;78.60;;;;;;5056001;28;20025;-64
2023/12/04 02:46:39;;;;;;;19.75;13.02;;;-1.30;79.20;;;;;;5055747;28;20101;-67
2023/12/04 02:49:05;;;;;;;17.48;12.20;;;-1.40;79.90;;;;;;5055899;28;20032;-65
2023/12/04 02:51:31;;;;;;;18.30;12.15;;;-1.40;79.80;;;;;;5055682;28;20029;-62
2023/12/04 02:53:57;;;;;;;19.08;11.18;;;-1.40;80.10;;;;;;5055745;28;20032;-66
2023/12/04 02:56:22;;;;;;;14.77;10.55;;;-1.40;80.30;;;;;;5054576;28;20029;-65
2023/12/04 02:58:48;;;;;;;16.50;10.90;;;-1.40;80.00;;;;;;5055664;28;20060;-65
2023/12/04 03:01:14;;;;;;;16.05;9.98;;;-1.40;79.50;;;;;;5055627;28;20057;-61
2023/12/04 03:03:39;;;;;;;17.55;10.93;;;-1.50;78.70;;;;;;5055411;28;20060;-62
2023/12/04 03:06:05;;;;;;;23.17;13.75;;;-1.50;78.80;;;;;;5055406;28;20074;-63
2023/12/04 03:08:31;;;;;;;17.98;11.65;;;-1.50;78.70;;;;;;5055376;28;20151;-68
2023/12/04 03:10:57;;;;;;;21.42;13.27;;;-1.60;79.30;;;;;;5054844;28;20116;-63
2023/12/04 03:13:23;;;;;;;14.55;10.25;;;-1.80;81.40;;;;;;5055379;28;20025;-66
2023/12/04 03:15:48;;;;;;;16.88;11.25;;;-2.10;83.70;;;;;;5055336;28;20518;-63
2023/12/04 03:18:14;;;;;;;13.50;9.10;;;-2.10;85.70;;;;;;5055174;28;20025;-63
2023/12/04 03:20:40;;;;;;;15.52;10.20;;;-2.20;86.80;;;;;;5055214;28;20059;-67
2023/12/04 03:23:05;;;;;;;16.73;10.98;;;-2.10;87.10;;;;;;5055222;28;20017;-63
2023/12/04 03:25:31;;;;;;;14.95;8.68;;;-2.10;86.90;;;;;;5054899;28;20021;-68
2023/12/04 03:27:57;;;;;;;12.23;7.65;;;-2.00;86.80;;;;;;5055066;28;20163;-64
2023/12/04 03:30:22;;;;;;;9.85;6.70;;;-2.00;85.40;;;;;;5055081;28;20017;-63
2023/12/04 03:32:48;;;;;;;10.63;7.13;;;-2.00;85.20;;;;;;5054937;28;20025;-68
2023/12/04 03:35:14;;;;;;;10.23;6.70;;;-1.90;83.90;;;;;;5054839;28;20067;-69
2023/12/04 03:37:39;;;;;;;10.82;7.25;;;-1.80;83.80;;;;;;5055011;28;20024;-66
2023/12/04 03:40:06;;;;;;;17.27;10.20;;;-1.80;82.20;;;;;;5054654;28;20025;-63
2023/12/04 03:42:31;;;;;;;11.93;7.57;;;-1.80;82.10;;;;;;5054749;28;20029;-62
2023/12/04 03:44:57;;;;;;;13.68;10.05;;;-1.80;82.10;;;;;;5054798;28;20028;-60
2023/12/04 03:47:23;;;;;;;15.23;9.10;;;-1.90;81.90;;;;;;5054771;28;20063;-66
2023/12/04 03:49:49;;;;;;;11.48;7.63;;;-2.00;82.50;;;;;;5054830;28;20025;-63
2023/12/04 03:52:14;;;;;;;11.05;7.40;;;-2.00;83.70;;;;;;5054595;28;20430;-63
2023/12/04 03:54:40;;;;;;;17.35;10.10;;;-2.10;82.60;;;;;;5054456;28;20025;-64
2023/12/04 03:57:06;;;;;;;11.98;7.68;;;-2.10;82.40;;;;;;5054680;28;20439;-61
2023/12/04 03:59:32;;;;;;;12.07;7.95;;;-2.00;82.80;;;;;;5054453;28;20452;-59
2023/12/04 04:01:57;;;;;;;14.10;9.05;;;-2.00;82.10;;;;;;5054442;28;20498;-66
2023/12/04 04:04:23;;;;;;;12.50;8.45;;;-2.00;81.70;;;;;;5054463;28;20030;-65
2023/12/04 04:06:49;;;;;;;13.02;7.55;;;-2.00;82.10;;;;;;5054295;28;20465;-67
2023/12/04 04:09:14;;;;;;;11.27;7.38;;;-2.10;82.80;;;;;;5053905;28;20025;-63
2023/12/04 04:11:41;;;;;;;12.07;8.38;;;-2.10;83.50;;;;;;5054074;28;20143;-64
2023/12/04 04:14:06;;;;;;;11.68;6.85;;;-2.10;81.90;;;;;;5054038;28;20048;-66
2023/12/04 04:16:32;;;;;;;12.38;7.60;;;-2.00;81.40;;;;;;5054216;28;20017;-62
2023/12/04 04:18:58;;;;;;;13.15;7.60;;;-2.10;81.80;;;;;;5052800;28;20028;-66
2023/12/04 04:21:23;;;;;;;15.15;9.02;;;-2.10;81.70;;;;;;5053953;28;20029;-61
2023/12/04 04:23:49;;;;;;;10.68;7.13;;;-2.10;81.10;;;;;;5053875;28;20570;-65
2023/12/04 04:26:15;;;;;;;14.30;9.38;;;-2.10;82.70;;;;;;5054025;28;20025;-66
2023/12/04 04:28:40;;;;;;;12.00;7.45;;;-2.10;82.80;;;;;;5053848;28;20021;-60
2023/12/04 04:31:06;;;;;;;11.95;6.90;;;-2.10;82.10;;;;;;5053750;28;20402;-66
2023/12/04 04:33:32;;;;;;;10.85;7.00;;;-2.10;81.30;;;;;;5054188;28;20104;-63
2023/12/04 04:35:58;;;;;;;10.02;6.25;;;-2.10;82.10;;;;;;5053737;28;20052;-62
2023/12/04 04:38:23;;;;;;;11.63;7.45;;;-2.10;81.70;;;;;;5053436;28;20025;-65
2023/12/04 04:40:49;;;;;;;13.07;8.73;;;-2.10;81.70;;;;;;5053648;28;20021;-67
2023/12/04 04:43:15;;;;;;;8.50;6.28;;;-2.30;82.40;;;;;;5053639;28;20021;-65
2023/12/04 04:45:40;;;;;;;10.32;6.55;;;-2.30;82.70;;;;;;5053564;28;20475;-64
2023/12/04 04:48:06;;;;;;;10.90;7.22;;;-2.30;82.70;;;;;;5053526;28;20067;-64
2023/12/04 04:50:32;;;;;;;11.77;7.32;;;-2.30;82.20;;;;;;5053485;28;20021;-61
2023/12/04 04:52:57;;;;;;;11.07;7.65;;;-2.30;82.70;;;;;;5053185;28;20029;-64
2023/12/04 04:55:23;;;;;;;10.70;7.45;;;-2.30;81.90;;;;;;5053433;28;20107;-63
2023/12/04 04:57:49;;;;;;;11.80;7.43;;;-2.30;81.40;;;;;;5053420;28;20025;-63
2023/12/04 05:00:16;;;;;;;9.40;7.18;;;-2.30;82.30;;;;;;5053371;28;20024;-66
2023/12/04 05:02:41;;;;;;;11.02;7.03;;;-2.30;82.90;;;;;;5053458;28;20025;-62
2023/12/04 05:05:07;;;;;;;11.90;7.32;;;-2.30;83.10;;;;;;5053298;28;20510;-65
2023/12/04 05:07:33;;;;;;;19.20;11.77;;;-2.30;82.70;;;;;;5053168;28;20617;-66
2023/12/04 05:09:59;;;;;;;15.07;7.93;;;-2.30;81.90;;;;;;5052847;28;20041;-66
2023/12/04 05:12:25;;;;;;;15.55;9.30;;;-2.30;83.20;;;;;;5052965;28;20059;-68
2023/12/04 05:14:50;;;;;;;13.80;9.15;;;-2.30;83.10;;;;;;5053188;28;20025;-62
2023/12/04 05:17:16;;;;;;;13.93;8.90;;;-2.30;82.70;;;;;;5052965;28;20017;-63
2023/12/04 05:19:42;;;;;;;11.30;8.27;;;-2.30;82.50;;;;;;5052687;28;20095;-64
2023/12/04 05:22:08;;;;;;;12.77;8.27;;;-2.30;82.50;;;;;;5053075;28;20023;-66
2023/12/04 05:24:35;;;;;;;13.23;8.23;;;-2.20;82.90;;;;;;5053000;28;20028;-66
2023/12/04 05:27:02;;;;;;;11.23;7.72;;;-2.20;82.20;;;;;;5053058;28;20526;-65
2023/12/04 05:29:28;;;;;;;12.95;8.77;;;-2.30;82.20;;;;;;5053066;28;20029;-64
2023/12/04 05:31:53;;;;;;;16.98;11.52;;;-2.30;81.70;;;;;;5052787;28;20423;-65
2023/12/04 05:34:19;;;;;;;17.17;11.07;;;-2.30;81.50;;;;;;5053115;28;20411;-63
2023/12/04 05:36:45;;;;;;;25.58;15.73;;;-2.30;81.50;;;;;;5052821;28;20391;-64
2023/12/04 05:39:10;;;;;;;23.95;14.98;;;-2.30;81.60;;;;;;5051663;28;20029;-62
2023/12/04 05:41:36;;;;;;;13.90;9.82;;;-2.40;83.00;;;;;;5052098;28;20029;-63
2023/12/04 05:44:02;;;;;;;17.55;11.10;;;-2.50;83.80;;;;;;5053016;28;20032;-62
2023/12/04 05:46:27;;;;;;;16.73;11.02;;;-2.50;82.90;;;;;;5052835;28;20021;-65
2023/12/04 05:48:53;;;;;;;16.75;11.75;;;-2.50;83.70;;;;;;5052778;28;20021;-64
2023/12/04 05:51:19;;;;;;;18.02;10.93;;;-2.40;84.00;;;;;;5051770;28;20044;-61
2023/12/04 05:53:45;;;;;;;16.30;10.00;;;-2.40;83.70;;;;;;5052876;28;20056;-64
2023/12/04 05:56:10;;;;;;;19.48;12.88;;;-2.40;83.30;;;;;;5052617;28;20021;-65
2023/12/04 05:58:36;;;;;;;20.92;12.20;;;-2.40;81.80;;;;;;5052796;28;20491;-60
2023/12/04 06:01:02;;;;;;;24.17;15.25;;;-2.50;82.70;;;;;;5052757;28;20017;-64
2023/12/04 06:03:28;;;;;;;24.95;14.18;;;-2.60;82.70;;;;;;5052656;28;20020;-62
2023/12/04 06:05:53;;;;;;;26.75;15.90;;;-2.60;83.00;;;;;;5052548;28;20021;-62
2023/12/04 06:08:19;;;;;;;22.38;13.50;;;-2.50;82.60;;;;;;5052442;28;20420;-66
2023/12/04 06:10:46;;;;;;;20.77;13.43;;;-2.50;82.70;;;;;;5052370;28;20045;-63
2023/12/04 06:13:11;;;;;;;23.45;14.63;;;-2.40;82.10;;;;;;5050818;28;20029;-65
2023/12/04 06:15:37;;;;;;;26.17;16.30;;;-2.40;82.10;;;;;;5052187;28;20032;-61
2023/12/04 06:18:04;;;;;;;23.83;15.23;;;-2.50;81.30;;;;;;5051274;28;20025;-60
2023/12/04 06:20:30;;;;;;;23.02;14.30;;;-2.40;81.50;;;;;;5052266;28;20048;-62
2023/12/04 06:22:56;;;;;;;23.60;14.48;;;-2.40;80.70;;;;;;5052455;28;20471;-63
2023/12/04 06:25:22;;;;;;;22.05;13.38;;;-2.40;81.00;;;;;;5052470;28;20025;-63
2023/12/04 06:27:48;;;;;;;19.65;12.98;;;-2.40;81.30;;;;;;5052669;28;20053;-66
2023/12/04 06:30:14;;;;;;;20.77;12.95;;;-2.40;81.40;;;;;;5044501;28;20029;-62
2023/12/04 06:32:40;;;;;;;25.80;16.08;;;-2.40;81.50;;;;;;5040973;28;20444;-61
2023/12/04 06:35:07;;;;;;;22.98;13.82;;;-2.30;81.80;;;;;;5042147;28;20025;-61
2023/12/04 06:37:33;;;;;;;20.95;13.82;;;-2.30;81.90;;;;;;5038498;28;20151;-61
2023/12/04 06:40:02;;;;;;;19.15;13.77;;;-2.30;81.70;;;;;;5055400;28;20088;-66
2023/12/04 06:42:28;;;;;;;18.27;11.98;;;-2.30;81.90;;;;;;5054076;28;20075;-61
2023/12/04 06:44:54;;;;;;;18.40;11.95;;;-2.20;82.20;;;;;;5049702;28;20061;-62
2023/12/04 06:47:23;;;;;;;20.58;12.98;;;-2.20;82.00;;;;;;5041036;28;20029;-61
2023/12/04 06:49:49;;;;;;;18.38;11.73;;;-2.20;82.70;;;;;;5051323;28;20085;-67
2023/12/04 06:52:15;;;;;;;21.58;13.40;;;-2.10;82.00;;;;;;5045173;28;20036;-63
2023/12/04 06:54:40;;;;;;;19.60;12.77;;;-2.10;82.90;;;;;;5038163;28;20032;-65
2023/12/04 06:57:10;;;;;;;17.60;12.23;;;-2.10;83.60;;;;;;5040563;28;20036;-66
2023/12/04 06:59:35;;;;;;;22.98;15.15;;;-2.20;83.60;;;;;;5037991;28;20036;-59
2023/12/04 07:02:01;;;;;;;21.35;13.65;;;-2.20;84.50;;;;;;5044428;28;20021;-64
2023/12/04 07:04:27;;;;;;;21.67;14.35;;;-2.20;84.60;;;;;;5043010;28;20025;-63
2023/12/04 07:06:53;;;;;;;29.58;19.75;;;-2.20;84.30;;;;;;5036282;28;20083;-67
2023/12/04 07:09:18;;;;;;;28.90;17.92;;;-2.10;83.30;;;;;;5032675;28;20040;-62
2023/12/04 07:11:44;;;;;;;25.92;17.58;;;-2.10;82.80;;;;;;5033564;28;20148;-62
2023/12/04 07:14:10;;;;;;;24.60;16.70;;;-2.00;82.50;;;;;;5041208;28;20082;-73
2023/12/04 07:16:43;;;;;;;23.88;16.40;;;-2.10;81.40;;;;;;5039702;28;20431;-63
2023/12/04 07:19:09;;;;;;;24.42;15.45;;;-2.10;81.90;;;;;;5034571;28;20487;-64
2023/12/04 07:21:36;;;;;;;22.17;15.18;;;-2.10;82.20;;;;;;5035803;28;20063;-67
2023/12/04 07:24:02;;;;;;;26.50;16.67;;;-2.00;81.30;;;;;;5036394;28;20025;-63
2023/12/04 07:26:28;;;;;;;24.45;15.15;;;-1.90;81.30;;;;;;5043270;28;21482;-64
2023/12/04 07:28:54;;;;;;;51.20;31.25;;;-1.80;81.50;;;;;;5038775;28;20038;-64
2023/12/04 07:31:19;;;;;;;68.55;40.50;;;-1.80;80.10;;;;;;5040156;28;20372;-66
2023/12/04 07:33:45;;;;;;;70.60;41.05;;;-1.70;79.80;;;;;;5039766;28;20049;-66
2023/12/04 07:36:11;;;;;;;43.42;28.63;;;-1.20;80.00;;;;;;5037303;28;20026;-66
2023/12/04 07:38:37;;;;;;;44.60;29.13;;;-0.40;78.80;;;;;;5052737;28;20033;-62
2023/12/04 07:41:03;;;;;;;51.80;32.28;;;1.40;70.50;;;;;;5040371;28;20056;-65
2023/12/04 07:43:28;;;;;;;91.60;54.72;;;3.80;56.40;;;;;;5038721;28;20049;-65
2023/12/04 07:45:56;;;;;;;62.92;41.28;;;5.90;46.30;;;;;;5038788;28;20036;-62
2023/12/04 07:48:21;;;;;;;62.83;42.83;;;7.30;43.70;;;;;;5043042;28;20030;-65
2023/12/04 07:50:47;;;;;;;72.68;49.38;;;8.70;40.10;;;;;;5052524;28;20062;-63
2023/12/04 07:53:13;;;;;;;76.93;51.05;;;9.70;37.90;;;;;;5052058;28;20051;-63
2023/12/04 07:55:39;;;;;;;110.88;70.72;;;10.60;35.20;;;;;;5034937;28;20022;-65
2023/12/04 07:58:05;;;;;;;74.75;54.10;;;11.20;32.10;;;;;;5041737;28;20383;-64
2023/12/04 08:00:31;;;;;;;77.90;54.17;;;12.00;31.90;;;;;;5045215;28;20030;-68
2023/12/04 08:02:56;;;;;;;108.45;72.40;;;12.50;30.80;;;;;;5051957;28;20021;-66
2023/12/04 08:05:22;;;;;;;79.03;55.35;;;13.00;29.50;;;;;;5053641;28;20547;-68
2023/12/04 08:07:48;;;;;;;71.53;53.00;;;13.30;29.30;;;;;;5038930;28;20026;-66
2023/12/04 08:10:14;;;;;;;95.72;67.43;;;13.70;28.50;;;;;;5032260;28;20084;-66
2023/12/04 08:12:40;;;;;;;77.05;56.17;;;13.70;27.40;;;;;;5035417;28;20036;-64
2023/12/04 08:15:06;;;;;;;80.72;60.13;;;13.60;28.10;;;;;;5039539;28;20112;-67
2023/12/04 08:17:32;;;;;;;78.63;55.33;;;13.80;27.50;;;;;;5036400;28;20021;-63
2023/12/04 08:19:58;;;;;;;69.88;51.55;;;13.90;28.00;;;;;;5032996;28;20026;-64
2023/12/04 08:22:23;;;;;;;62.38;48.47;;;14.20;28.00;;;;;;5038076;28;20213;-72
2023/12/04 08:24:49;;;;;;;78.97;56.65;;;14.40;27.30;;;;;;5050050;28;20459;-72
2023/12/04 08:27:15;;;;;;;61.55;46.75;;;14.30;27.40;;;;;;5052860;28;20586;-70
2023/12/04 08:29:41;;;;;;;63.40;49.58;;;14.40;27.80;;;;;;5040991;28;20033;-70
2023/12/04 08:32:06;;;;;;;55.38;44.15;;;14.60;27.30;;;;;;5034930;28;20114;-72
2023/12/04 08:34:32;;;;;;;51.50;41.00;;;14.40;27.60;;;;;;5038163;28;20030;-66
2023/12/04 08:36:58;;;;;;;57.78;43.05;;;14.40;27.40;;;;;;5042281;28;20037;-67
2023/12/04 08:39:24;;;;;;;59.97;47.72;;;14.30;27.30;;;;;;5038400;28;20037;-64
2023/12/04 08:41:50;;;;;;;50.22;40.85;;;13.90;27.50;;;;;;5041193;28;20029;-62
2023/12/04 08:44:15;;;;;;;42.75;35.35;;;13.50;28.60;;;;;;5036087;28;20056;-66
2023/12/04 08:46:43;;;;;;;43.05;34.90;;;13.50;28.80;;;;;;5030883;28;20031;-64
2023/12/04 08:49:09;;;;;;;57.70;42.95;;;13.40;29.10;;;;;;5035481;28;20021;-64
2023/12/04 08:51:35;;;;;;;42.95;35.17;;;13.10;28.90;;;;;;5032203;28;20036;-73
2023/12/04 08:54:00;;;;;;;41.50;33.55;;;12.80;29.40;;;;;;5031997;28;20091;-65
2023/12/04 08:56:26;;;;;;;42.08;34.15;;;12.50;29.50;;;;;;5028542;28;20066;-68
2023/12/04 08:58:52;;;;;;;41.45;33.05;;;12.20;30.00;;;;;;5036798;28;20580;-70
2023/12/04 09:01:17;;;;;;;36.95;30.88;;;12.10;29.90;;;;;;5033147;28;20018;-66
2023/12/04 09:03:44;;;;;;;55.13;43.92;;;11.80;30.50;;;;;;5032252;28;20028;-66
2023/12/04 09:06:10;;;;;;;55.88;43.88;;;11.50;30.80;;;;;;5031741;28;20088;-67
2023/12/04 09:08:35;;;;;;;53.78;44.72;;;11.20;32.00;;;;;;5031321;28;20691;-64
2023/12/04 09:11:01;;;;;;;91.72;70.18;;;11.00;32.90;;;;;;5032259;28;20057;-70
2023/12/04 09:13:29;;;;;;;69.45;55.35;;;11.10;32.10;;;;;;5032719;28;20046;-66
2023/12/04 09:15:54;;;;;;;68.10;56.80;;;10.90;33.30;;;;;;5033156;28;20060;-65
2023/12/04 09:18:20;;;;;;;69.15;54.92;;;10.90;34.20;;;;;;5038083;28;20052;-70
2023/12/04 09:20:46;;;;;;;61.50;51.10;;;10.90;33.50;;;;;;5039451;28;20037;-66
2023/12/04 09:23:12;;;;;;;56.08;45.38;;;11.00;34.20;;;;;;5032912;28;20065;-67
2023/12/04 09:25:37;;;;;;;57.75;47.72;;;10.90;32.90;;;;;;5041237;28;20020;-66
2023/12/04 09:28:03;;;;;;;51.45;43.60;;;10.90;33.50;;;;;;5052997;28;20036;-69
2023/12/04 09:30:29;;;;;;;45.22;36.78;;;10.80;32.80;;;;;;5043696;28;20047;-69
2023/12/04 09:32:55;;;;;;;38.50;33.55;;;10.90;33.70;;;;;;5050812;28;20100;-71
2023/12/04 09:35:20;;;;;;;35.65;29.73;;;11.30;32.50;;;;;;5053374;28;20044;-69
2023/12/04 09:37:48;;;;;;;34.70;29.50;;;11.50;32.80;;;;;;5051570;28;20017;-68
2023/12/04 09:40:14;;;;;;;36.45;31.35;;;11.70;30.50;;;;;;5051980;28;20414;-62
2023/12/04 09:42:41;;;;;;;34.33;28.65;;;11.90;31.10;;;;;;5045254;28;20029;-65
2023/12/04 09:45:08;;;;;;;32.15;27.90;;;12.00;32.20;;;;;;5046008;28;20029;-63
2023/12/04 09:47:35;;;;;;;23.25;20.58;;;12.30;30.00;;;;;;5045913;28;20033;-65
2023/12/04 09:50:01;;;;;;;12.82;11.13;;;12.30;28.80;;;;;;5033090;28;20028;-69
2023/12/04 09:52:31;;;;;;;10.85;9.75;;;12.40;29.40;;;;;;5036514;28;20029;-70
2023/12/04 09:54:56;;;;;;;9.70;8.48;;;12.20;28.80;;;;;;5051105;28;20074;-69
2023/12/04 09:57:24;;;;;;;6.90;6.20;;;12.10;30.60;;;;;;5032355;28;20430;-61
2023/12/04 09:59:51;;;;;;;4.78;4.38;;;12.00;29.60;;;;;;5044185;28;20063;-69
2023/12/04 10:02:17;;;;;;;4.90;3.95;;;12.10;28.60;;;;;;5047419;28;20051;-69
2023/12/04 10:04:43;;;;;;;5.13;4.15;;;11.90;28.80;;;;;;5053230;28;20467;-65
2023/12/04 10:07:09;;;;;;;4.10;3.70;;;11.90;29.10;;;;;;5038675;28;20124;-65
2023/12/04 10:09:35;;;;;;;3.90;3.40;;;11.70;29.40;;;;;;5035102;28;20471;-64
2023/12/04 10:12:01;;;;;;;3.50;3.20;;;11.60;29.40;;;;;;5042161;28;20041;-66
2023/12/04 10:14:27;;;;;;;4.10;3.70;;;11.70;30.30;;;;;;5037214;28;20104;-65
2023/12/04 10:16:53;;;;;;;4.30;3.90;;;11.80;28.90;;;;;;5038250;28;20454;-65
2023/12/04 10:19:23;;;;;;;3.78;3.30;;;11.80;28.10;;;;;;5037374;28;20029;-66
2023/12/04 10:21:50;;;;;;;5.07;4.13;;;11.70;29.50;;;;;;5038713;28;20491;-70
2023/12/04 10:24:38;;;;;;;3.83;3.53;;;11.80;29.00;;;;;;5040700;28;20026;-64
2023/12/04 10:27:10;;;;;;;6.15;5.55;;;11.90;29.30;;;;;;5046031;28;20039;-70
2023/12/04 10:29:45;;;;;;;5.68;5.07;;;12.00;29.00;;;;;;5035385;28;20030;-63
2023/12/04 10:32:11;;;;;;;6.47;4.97;;;11.70;28.90;;;;;;5038880;28;20057;-69
2023/12/04 10:34:38;;;;;;;5.47;4.90;;;12.00;29.70;;;;;;5054162;28;20380;-65
2023/12/04 10:37:05;;;;;;;6.00;5.40;;;12.40;28.60;;;;;;5045542;28;20060;-65
2023/12/04 10:39:31;;;;;;;5.75;5.03;;;12.70;28.10;;;;;;5041789;28;20032;-63
2023/12/04 10:42:02;;;;;;;6.03;4.90;;;12.70;28.30;;;;;;5038103;28;20461;-74
2023/12/04 10:44:29;;;;;;;5.68;5.10;;;12.50;27.70;;;;;;5040422;28;20026;-69
2023/12/04 10:47:00;;;;;;;5.55;4.93;;;12.60;30.00;;;;;;5045876;28;20029;-66
2023/12/04 10:49:28;;;;;;;6.07;5.38;;;12.70;29.80;;;;;;5041193;28;20036;-65
2023/12/04 10:51:59;;;;;;;5.45;4.90;;;12.90;28.70;;;;;;5039387;28;20041;-61
2023/12/04 10:54:26;;;;;;;5.85;5.28;;;13.00;28.40;;;;;;5032419;28;20041;-73
2023/12/04 10:56:53;;;;;;;8.43;6.10;;;12.60;28.70;;;;;;5035039;28;20495;-66
2023/12/04 10:59:25;;;;;;;6.43;5.78;;;12.40;28.70;;;;;;5035263;28;20056;-63
2023/12/04 11:01:54;;;;;;;4.90;4.40;;;12.20;30.00;;;;;;5042731;28;20025;-62
2023/12/04 11:04:23;;;;;;;4.82;4.32;;;12.40;28.80;;;;;;5035818;28;20104;-71
2023/12/04 11:06:53;;;;;;;5.93;5.32;;;12.30;29.10;;;;;;5049722;28;20025;-64
2023/12/04 11:09:21;;;;;;;5.13;4.63;;;12.20;29.30;;;;;;5044558;28;20057;-68
2023/12/04 11:11:53;;;;;;;4.85;4.35;;;12.30;29.40;;;;;;5037811;28;20029;-64
2023/12/04 11:14:22;;;;;;;3.85;3.55;;;12.40;29.30;;;;;;5044662;28;20178;-63
2023/12/04 11:16:56;;;;;;;3.60;3.30;;;12.60;30.00;;;;;;5048063;28;20033;-66
2023/12/04 11:19:40;;;;;;;2.80;2.60;;;12.90;29.00;;;;;;5052446;28;20113;-64
2023/12/04 11:22:09;;;;;;;2.88;2.42;;;13.20;28.10;;;;;;5050274;28;20071;-67
2023/12/04 11:24:36;;;;;;;2.00;1.80;;;13.40;28.70;;;;;;5037698;28;20021;-64
2023/12/04 11:27:03;;;;;;;2.72;2.53;;;13.60;27.10;;;;;;5033461;28;20025;-69
2023/12/04 11:29:29;;;;;;;2.70;2.50;;;13.60;26.70;;;;;;5033443;28;20014;-64
2023/12/04 11:31:55;;;;;;;2.58;2.38;;;13.50;26.50;;;;;;5031706;28;20048;-65
2023/12/04 11:34:21;;;;;;;3.03;2.72;;;13.20;26.60;;;;;;5029794;28;20495;-66
2023/12/04 11:36:47;;;;;;;3.10;2.83;;;12.90;26.00;;;;;;5032992;28;20044;-68
2023/12/04 11:39:13;;;;;;;4.38;3.97;;;12.80;25.90;;;;;;5040975;28;20048;-66
2023/12/04 11:41:42;;;;;;;6.35;5.50;;;12.80;26.20;;;;;;5052320;28;20024;-62
2023/12/04 11:44:16;;;;;;;5.63;5.03;;;12.80;25.60;;;;;;5049296;28;20120;-64
2023/12/04 11:47:04;;;;;;;4.10;3.70;;;12.50;26.30;;;;;;5038627;28;20040;-63
2023/12/04 11:49:31;;;;;;;4.60;4.10;;;12.90;26.60;;;;;;5034976;28;20040;-68
2023/12/04 11:51:58;;;;;;;4.18;3.78;;;13.20;26.00;;;;;;5034508;28;20052;-65
2023/12/04 11:54:27;;;;;;;5.85;5.25;;;13.20;26.40;;;;;;5036557;28;20037;-65
2023/12/04 11:57:07;;;;;;;6.40;5.80;;;13.10;25.20;;;;;;5034745;28;20037;-69
2023/12/04 11:59:37;;;;;;;3.72;3.42;;;12.70;26.10;;;;;;5034425;28;20025;-61
2023/12/04 12:02:08;;;;;;;4.13;3.78;;;13.00;25.50;;;;;;5034375;28;20384;-66
2023/12/04 12:04:34;;;;;;;4.47;3.20;;;13.10;26.70;;;;;;5033640;28;20036;-66
2023/12/04 12:07:02;;;;;;;4.05;3.65;;;13.40;25.60;;;;;;5034153;28;20026;-62
2023/12/04 12:09:29;;;;;;;5.43;4.40;;;13.30;24.70;;;;;;5036926;28;20135;-63
2023/12/04 12:11:55;;;;;;;4.70;4.13;;;13.20;24.20;;;;;;5030469;28;20025;-66
2023/12/04 12:14:23;;;;;;;5.40;4.60;;;12.80;25.30;;;;;;5031146;28;20372;-68
2023/12/04 12:16:49;;;;;;;4.90;4.30;;;13.00;25.40;;;;;;5034216;28;20026;-63
2023/12/04 12:19:15;;;;;;;4.10;3.65;;;13.30;24.80;;;;;;5043087;28;20094;-64
2023/12/04 12:21:41;;;;;;;4.38;3.85;;;13.10;24.70;;;;;;5051032;28;20033;-70
2023/12/04 12:24:07;;;;;;;3.70;3.33;;;13.20;25.40;;;;;;5034376;28;20025;-65
2023/12/04 12:26:33;;;;;;;3.13;2.83;;;13.30;25.50;;;;;;5048381;28;20109;-66
2023/12/04 12:28:59;;;;;;;3.40;3.10;;;13.60;25.50;;;;;;5036665;28;20041;-68